• Join FlightAware (Why Join?)
  • Login
  • US Flag 
Rudolph Flight #1: Scheduled 
10:54PM EST


 

Airport Tracker/Info


-or-


 

Live Flight TrackerFlight Track Log ✈ SWA3678 ✈ 11-May-2013 ✈ KFLL - KTPA

Flight Track Log - Related Links

Times and Time Zones

All times are in EDT time to prevent confusion due to time zone crossing. See the SWA3678 flight status page for this flight to view local times or setup timezone preferences in your user account.

Time Position Orientation Groundspeed Altitude Reporting Facility
EDT Latitude Longitude Course Direction KTS MPH feet Rate Location/Type
05:07PM 26.0911 -80.0631 77° East 219 252 4,400  Level Miami Center
05:08PM 26.1514 -80.0786 347° North 268 308 5,500 2,160 Climbing Miami Center
05:09PM 26.2072 -80.1008 340° North 286 329 8,500 2,940 Climbing Miami Center
05:10PM 26.2858 -80.1425 335° Northwest 304 350 11,000 1,200 Climbing Miami Center
05:11PM 26.3706 -80.1867 335° Northwest 325 374 11,000 840 Level Miami Center
05:12PM 26.4311 -80.2717 309° West 325 374 12,800 1,740 Climbing Miami Center
05:13PM 26.4750 -80.3636 298° West 333 383 14,500 1,680 Climbing Miami Center
05:14PM 26.5058 -80.4619 289° West 333 383 16,200 1,740 Climbing Miami Center
05:15PM 26.5517 -80.5517 300° West 333 383 18,000 1,500 Climbing Miami Center
05:16PM 26.6164 -80.6372 310° West 351 404 19,200 1,920 Climbing Miami Center
05:17PM 26.6786 -80.7300 307° West 363 418 21,900 1,380 Climbing Miami Center
05:18PM 26.7283 -80.8175 302° West 379 436 22,000  Climbing Miami Center
05:19PM 26.7842 -80.9217 301° West 386 444 22,000  Level Miami Center
05:20PM 26.8417 -81.0261 302° West 394 453 22,000  Level Miami Center
05:21PM 26.8992 -81.1261 303° West 394 453 22,000  Level Miami Center
05:22PM 26.9547 -81.2306 301° West 394 453 22,000  Level Miami Center
05:23PM 27.0119 -81.3331 302° West 394 453 22,000  Level Miami Center
05:24PM 27.0694 -81.4331 303° West 389 448 22,000  Level Miami Center
05:25PM 27.1328 -81.5453 302° West 394 453 22,000  Level Miami Center
05:26PM 27.1875 -81.6525 300° West 394 453 22,000 -840 Level Miami Center
05:27PM 27.2428 -81.7506 302° West 389 448 20,400 -1,980 Descending Miami Center
05:28PM 27.2900 -81.8367 302° West 373 429 18,100 -2,400 Descending Miami Center
05:29PM 27.3489 -81.9442 302° West 373 429 15,700 -2,400 Descending Miami Center
05:30PM 27.3978 -82.0353 301° West 362 417 13,400 -2,340 Descending Miami Center
05:31PM 27.4467 -82.1264 301° West 357 411 11,100 -1,200 Descending Miami Center
05:32PM 27.5064 -82.2039 311° West 339 390 11,000 -240 Descending Miami Center
05:33PM 27.5644 -82.2675 316° Northwest 327 376 10,700 -780 Descending Miami Center
05:34PM 27.6283 -82.3481 312° West 327 376 9,500 -1,140 Descending Miami Center
05:35PM 27.6833 -82.4000 320° Northwest 289 333 8,700 -1,200 Descending Tampa TRACON
05:36PM 27.7500 -82.4167 348° North 289 333 7,300 -1,500 Descending Tampa TRACON
05:37PM 27.8333 -82.4167 360° North 284 327 5,700 -1,200 Descending Tampa TRACON
05:38PM 27.9000 -82.4167 360° North 260 299 5,000 -360 Descending Tampa TRACON
05:39PM 27.9667 -82.4167 360° North 242 278 5,000 -600 Level Tampa TRACON
05:40PM 28.0333 -82.4167 360° North 231 266 3,900 -960 Descending Tampa TRACON
05:41PM 28.0667 -82.4667 307° West 168 193 2,900 -960 Descending Tampa TRACON
05:42PM 28.0667 -82.5000 270° West 148 170 2,000 -1,020 Descending Tampa TRACON
05:43PM 28.0333 -82.5333 221° Southwest 139 160 1,100 -840 Descending Tampa TRACON
05:44PM 28.0000 -82.5333 180° South 131 151 400 -720 Descending Tampa TRACON
05:46PM 27.9755 -82.5332 190° South  Level Estimated
05:53PM 27.9755 -82.5332 190° South  Level Estimated